Time;durP1;ratioP1;P1;durP2;ratioP2;P2;SDS_P1;SDS_P2;PMS_P1;PMS_P2;Temp;Humidity;BMP_temperature;BMP_pressure;BME280_temperature;BME280_humidity;BME280_pressure;Samples;Min_cycle;Max_cycle;Signal;HPM_P1;HPM_P2
2022/06/25 00:01:27;;;;;;;4.15;1.88;;;;;;;17.43;76.52;98520.88;2619051;39;20406;-67
2022/06/25 00:03:56;;;;;;;2.78;2.20;;;;;;;17.38;76.51;98515.47;2618833;54;20027;-67
2022/06/25 00:06:26;;;;;;;2.40;1.98;;;;;;;17.30;76.89;98528.16;2618306;54;20022;-67
2022/06/25 00:08:57;;;;;;;3.05;1.90;;;;;;;17.26;76.78;98521.69;2618544;54;20031;-67
2022/06/25 00:14:13;;;;;;;2.55;2.25;;;;;;;17.19;77.35;98534.41;2618708;54;20061;-68
2022/06/25 00:16:43;;;;;;;4.55;2.00;;;;;;;17.15;77.44;98521.78;2618745;54;20027;-67
2022/06/25 00:19:13;;;;;;;3.47;2.00;;;;;;;17.17;77.51;98525.81;2619015;54;20043;-67
2022/06/25 00:21:42;;;;;;;4.07;2.20;;;;;;;17.19;77.56;98526.41;2618541;54;20034;-68
2022/06/25 00:24:12;;;;;;;2.33;2.13;;;;;;;17.21;78.03;98526.97;2618394;54;20041;-68
2022/06/25 00:26:45;;;;;;;2.13;2.00;;;;;;;17.17;78.02;98533.84;2619054;54;20129;-68
2022/06/25 00:29:15;;;;;;;2.25;2.00;;;;;;;17.16;77.88;98534.91;2618790;54;20030;-68
2022/06/25 00:31:45;;;;;;;4.65;2.20;;;;;;;17.17;77.78;98536.50;2618557;47;20030;-67
2022/06/25 00:34:15;;;;;;;2.92;2.03;;;;;;;17.20;78.24;98532.56;2618031;54;20031;-67
2022/06/25 00:36:45;;;;;;;2.97;1.92;;;;;;;17.23;78.25;98535.56;2618855;54;20034;-67
2022/06/25 00:39:14;;;;;;;5.65;2.58;;;;;;;17.26;77.65;98539.59;2619110;47;20038;-67
2022/06/25 00:41:47;;;;;;;2.25;2.05;;;;;;;17.30;78.01;98538.84;2619893;54;20046;-67
2022/06/25 00:44:16;;;;;;;7.32;2.53;;;;;;;17.32;77.94;98536.75;2620941;54;20042;-67
2022/06/25 00:46:48;;;;;;;2.47;2.13;;;;;;;17.37;77.67;98533.38;2621874;46;20042;-67
2022/06/25 00:49:17;;;;;;;2.63;2.20;;;;;;;17.39;77.26;98538.44;2621258;54;20126;-67
2022/06/25 00:51:50;;;;;;;3.35;2.10;;;;;;;17.39;77.58;98538.44;2621380;54;20038;-67
2022/06/25 00:54:22;;;;;;;2.60;2.40;;;;;;;17.41;77.77;98542.50;2620966;54;20022;-68
2022/06/25 00:56:54;;;;;;;3.65;2.10;;;;;;;17.47;77.09;98543.38;2621127;54;20037;-67
2022/06/25 00:59:29;;;;;;;5.93;2.33;;;;;;;17.45;77.00;98537.50;2620622;54;20030;-67
2022/06/25 01:02:02;;;;;;;4.53;2.50;;;;;;;17.44;77.13;98541.22;2620257;47;20026;-66
2022/06/25 01:04:32;;;;;;;4.85;2.35;;;;;;;17.47;77.21;98538.06;2620359;54;20026;-66
2022/06/25 01:07:02;;;;;;;3.85;2.25;;;;;;;17.47;76.95;98543.38;2620445;54;20038;-66
2022/06/25 01:09:32;;;;;;;5.13;2.30;;;;;;;17.43;77.32;98550.28;2621537;54;20044;-66
2022/06/25 01:12:04;;;;;;;6.05;2.30;;;;;;;17.40;77.31;98553.47;2620855;54;20070;-67
2022/06/25 01:14:35;;;;;;;6.07;3.13;;;;;;;17.39;77.45;98547.31;2620511;54;20117;-66
2022/06/25 01:17:11;;;;;;;6.45;2.70;;;;;;;17.42;77.31;98543.31;2620138;54;20086;-66
2022/06/25 01:19:41;;;;;;;2.13;1.92;;;;;;;17.40;77.22;98562.28;2620653;54;20032;-66
2022/06/25 01:22:14;;;;;;;2.58;2.30;;;;;;;17.42;76.97;98552.16;2620767;54;20022;-67
2022/06/25 01:24:44;;;;;;;2.10;1.90;;;;;;;17.43;76.98;98553.78;2620808;54;20125;-67
2022/06/25 01:27:17;;;;;;;3.40;2.13;;;;;;;17.46;76.95;98563.16;2621283;54;20038;-67
2022/06/25 01:29:47;;;;;;;3.08;2.10;;;;;;;17.47;77.23;98564.78;2621245;54;20522;-66
2022/06/25 01:32:17;;;;;;;4.68;2.63;;;;;;;17.46;76.82;98563.97;2622029;54;20045;-66
2022/06/25 01:34:47;;;;;;;5.82;2.40;;;;;;;17.43;77.16;98555.63;2622781;54;20045;-67
2022/06/25 01:37:21;;;;;;;3.03;1.90;;;;;;;17.41;77.31;98560.41;2621972;54;20057;-67
2022/06/25 01:39:54;;;;;;;5.72;3.00;;;;;;;17.41;77.49;98560.41;2621923;54;20046;-67
2022/06/25 01:45:08;;;;;;;3.35;2.08;;;;;;;17.48;76.84;98567.22;2622427;54;20034;-67
2022/06/25 01:47:38;;;;;;;2.50;2.30;;;;;;;17.46;77.04;98568.50;2622870;54;20038;-67
2022/06/25 01:50:09;;;;;;;2.80;2.03;;;;;;;17.47;76.75;98570.94;2623714;39;20434;-67
2022/06/25 01:52:42;;;;;;;3.17;2.47;;;;;;;17.47;76.83;98570.13;2621802;54;20023;-67
2022/06/25 01:55:13;;;;;;;5.30;2.00;;;;;;;17.49;76.63;98574.19;2622308;54;20086;-67
2022/06/25 01:57:43;;;;;;;3.40;1.70;;;;;;;17.44;76.73;98571.44;2621854;47;20019;-67
2022/06/25 02:00:16;;;;;;;4.60;1.98;;;;;;;17.37;76.50;98576.13;2621483;54;20038;-67
2022/06/25 02:02:54;;;;;;;3.00;2.65;;;;;;;17.30;76.81;98565.56;2619764;47;20034;-68
2022/06/25 02:08:14;;;;;;;3.00;1.95;;;;;;;17.28;76.78;98570.38;2619987;54;20042;-67
2022/06/25 02:10:48;;;;;;;2.00;1.90;;;;;;;17.26;76.66;98569.78;2619242;54;20587;-67
2022/06/25 02:13:18;;;;;;;2.63;1.98;;;;;;;17.25;77.00;98567.34;2619175;47;20030;-67
2022/06/25 02:15:48;;;;;;;4.18;2.30;;;;;;;17.21;76.85;98569.69;2618888;47;20026;-67
2022/06/25 02:18:18;;;;;;;2.85;2.00;;;;;;;17.14;77.32;98569.03;2619175;54;20018;-67
2022/06/25 02:20:48;;;;;;;2.38;1.92;;;;;;;17.15;77.29;98568.00;2619677;54;20031;-67
2022/06/25 02:23:22;;;;;;;4.13;1.98;;;;;;;17.13;76.95;98567.41;2618291;54;20118;-67
2022/06/25 02:25:52;;;;;;;3.42;1.90;;;;;;;17.14;77.32;98570.91;2618498;54;20038;-67
2022/06/25 02:28:21;;;;;;;3.42;2.03;;;;;;;17.12;77.66;98567.66;2618362;39;20477;-66
2022/06/25 02:30:51;;;;;;;4.05;2.10;;;;;;;17.06;77.12;98566.75;2617973;47;20026;-67
2022/06/25 02:33:21;;;;;;;3.42;2.00;;;;;;;17.05;77.55;98570.47;2617614;47;20026;-67
2022/06/25 02:35:51;;;;;;;3.92;1.85;;;;;;;17.02;77.37;98579.81;2619241;54;20030;-67
2022/06/25 02:38:25;;;;;;;4.38;2.05;;;;;;;17.02;77.51;98584.31;2617682;47;20542;-68
2022/06/25 02:40:59;;;;;;;7.70;2.10;;;;;;;17.03;77.29;98580.59;2617559;54;20061;-68
2022/06/25 02:43:35;;;;;;;2.72;1.90;;;;;;;17.01;77.39;98580.03;2617101;47;20038;-67
2022/06/25 02:46:21;;;;;;;2.75;2.00;;;;;;;17.00;77.82;98587.22;2617504;47;20039;-68
2022/06/25 02:48:55;;;;;;;3.58;1.95;;;;;;;17.03;77.68;98589.44;2617568;47;20558;-67
2022/06/25 02:51:25;;;;;;;2.92;2.20;;;;;;;17.03;77.99;98584.09;2617447;47;20030;-66
2022/06/25 02:53:58;;;;;;;3.38;1.90;;;;;;;17.03;77.49;98581.41;2617213;47;20141;-67
2022/06/25 02:59:11;;;;;;;5.43;2.22;;;;;;;17.07;77.30;98587.91;2617437;47;20034;-68
2022/06/25 03:01:49;;;;;;;5.88;2.13;;;;;;;17.04;77.14;98595.56;2617616;47;20023;-66
2022/06/25 03:04:22;;;;;;;6.75;2.40;;;;;;;17.06;77.63;98588.13;2617377;54;20026;-66
2022/06/25 04:03:13;;;;;;;3.13;2.83;;;;;;;16.59;77.73;98625.63;2606281;39;20450;-66
2022/06/25 04:06:00;;;;;;;4.18;2.28;;;;;;;16.60;77.95;98616.59;2618828;54;20041;-67
2022/06/25 04:08:50;;;;;;;2.70;2.20;;;;;;;16.68;77.78;98624.22;2618480;54;20030;-68
2022/06/25 04:11:22;;;;;;;3.00;2.42;;;;;;;16.73;77.18;98623.53;2617409;47;20104;-67
2022/06/25 04:13:56;;;;;;;8.50;2.97;;;;;;;16.77;77.05;98630.03;2618020;54;20122;-68
2022/06/25 04:16:26;;;;;;;4.03;2.50;;;;;;;16.82;77.05;98630.16;2618052;47;20027;-68
2022/06/25 04:19:02;;;;;;;4.88;2.50;;;;;;;16.89;76.70;98628.13;2617977;47;20801;-68
2022/06/25 04:21:35;;;;;;;4.93;2.50;;;;;;;16.93;77.16;98631.13;2618974;31;20506;-67
2022/06/25 04:24:05;;;;;;;3.83;2.05;;;;;;;16.97;77.17;98635.75;2618020;54;20050;-67
2022/06/25 04:26:38;;;;;;;3.67;2.30;;;;;;;17.00;77.04;98637.97;2618364;46;20030;-67
2022/06/25 04:29:08;;;;;;;3.28;2.45;;;;;;;17.01;76.72;98636.09;2618443;54;20030;-67
2022/06/25 04:31:44;;;;;;;2.30;2.10;;;;;;;17.05;77.02;98629.22;2619079;39;20618;-67
2022/06/25 04:34:30;;;;;;;2.85;2.20;;;;;;;17.04;76.89;98628.44;2618193;54;20657;-67
2022/06/25 04:37:00;;;;;;;3.33;2.80;;;;;;;17.07;77.03;98635.16;2618501;39;20438;-68
2022/06/25 04:39:30;;;;;;;7.63;2.63;;;;;;;17.11;77.04;98630.16;2618282;47;20042;-67
2022/06/25 04:42:00;;;;;;;4.57;2.70;;;;;;;17.04;76.64;98632.97;2618081;54;20037;-68
2022/06/25 04:44:32;;;;;;;5.88;2.42;;;;;;;17.11;76.89;98636.31;2618754;39;20461;-67
2022/06/25 04:47:03;;;;;;;2.80;2.53;;;;;;;17.14;76.89;98633.13;2619051;39;20508;-67
2022/06/25 04:49:47;;;;;;;7.22;2.50;;;;;;;17.22;76.72;98631.94;2618397;39;20124;-68
2022/06/25 04:52:17;;;;;;;6.63;2.85;;;;;;;17.22;76.53;98642.63;2618408;47;20041;-67
2022/06/25 04:54:46;;;;;;;3.17;2.40;;;;;;;17.28;76.62;98647.84;2618190;54;20041;-67
2022/06/25 04:57:22;;;;;;;3.97;2.53;;;;;;;17.34;76.72;98643.38;2618288;54;20030;-67
2022/06/25 05:00:13;;;;;;;5.05;2.38;;;;;;;17.44;76.62;98654.25;2619030;54;20038;-68
2022/06/25 05:02:43;;;;;;;4.65;2.42;;;;;;;17.55;76.33;98647.22;2618192;46;20042;-68
2022/06/25 05:05:18;;;;;;;3.17;2.87;;;;;;;17.62;76.35;98650.56;2618866;39;20413;-68
2022/06/25 05:07:48;;;;;;;4.55;2.47;;;;;;;17.69;76.17;98651.22;2617926;51;20033;-68
2022/06/25 05:10:18;;;;;;;2.20;1.98;;;;;;;17.72;76.06;98658.75;2617733;47;20026;-68
2022/06/25 05:15:30;;;;;;;3.55;2.00;;;;;;;17.96;75.94;98650.59;2618169;51;20022;-68
2022/06/25 05:18:00;;;;;;;5.60;2.40;;;;;;;18.06;75.54;98659.59;2618387;54;20036;-69
2022/06/25 05:20:32;;;;;;;5.28;3.30;;;;;;;18.19;75.71;98658.44;2618850;54;20039;-69
2022/06/25 05:23:02;;;;;;;2.83;1.95;;;;;;;18.23;75.14;98656.88;2620165;54;20031;-69
2022/06/25 05:25:32;;;;;;;7.00;2.55;;;;;;;18.29;75.43;98663.13;2625467;39;20438;-67
2022/06/25 05:28:03;;;;;;;5.53;3.00;;;;;;;18.34;75.08;98665.06;2620925;47;20067;-67
2022/06/25 05:30:33;;;;;;;4.82;2.42;;;;;;;18.38;74.56;98658.16;2619261;54;20030;-68
2022/06/25 05:33:04;;;;;;;6.40;2.58;;;;;;;18.32;74.45;98662.63;2620116;47;20030;-68
2022/06/25 05:35:36;;;;;;;2.17;1.98;;;;;;;18.34;74.57;98667.75;2619219;54;20042;-68
2022/06/25 05:38:09;;;;;;;6.60;1.95;;;;;;;18.36;74.74;98666.44;2618739;54;20583;-68
2022/06/25 05:40:41;;;;;;;2.08;1.50;;;;;;;18.34;74.57;98659.72;2618820;54;20038;-68
2022/06/25 05:43:11;;;;;;;5.97;2.00;;;;;;;18.40;74.37;98664.06;2617429;47;20038;-69
2022/06/25 05:45:40;;;;;;;3.45;1.90;;;;;;;18.49;74.41;98662.59;2618603;54;20562;-70
2022/06/25 05:48:10;;;;;;;5.60;2.28;;;;;;;18.52;74.22;98667.44;2618420;54;20034;-68
2022/06/25 05:50:43;;;;;;;4.07;2.42;;;;;;;18.55;73.88;98662.41;2619570;39;20438;-67
2022/06/25 05:53:13;;;;;;;5.30;1.92;;;;;;;18.63;74.29;98668.41;2618573;54;20035;-67
2022/06/25 05:55:42;;;;;;;5.70;4.03;;;;;;;18.65;73.61;98661.72;2618664;54;20045;-70
2022/06/25 05:58:12;;;;;;;4.43;1.90;;;;;;;18.74;73.60;98671.00;2618065;54;20030;-67
2022/06/25 06:00:42;;;;;;;6.00;1.88;;;;;;;18.86;72.89;98670.03;2617840;47;20026;-69
2022/06/25 06:03:12;;;;;;;2.08;1.77;;;;;;;18.94;72.64;98670.44;2617159;54;20022;-68
2022/06/25 06:05:44;;;;;;;2.20;1.90;;;;;;;19.06;72.64;98678.31;2619143;54;20031;-68
2022/06/25 06:08:14;;;;;;;4.18;1.98;;;;;;;19.14;71.87;98675.19;2618153;47;20034;-68
2022/06/25 06:10:46;;;;;;;3.35;2.03;;;;;;;19.19;71.42;98677.16;2618379;39;20446;-68
2022/06/25 06:13:16;;;;;;;2.35;1.40;;;;;;;19.23;71.57;98668.34;2618927;54;20031;-68
2022/06/25 06:15:46;;;;;;;2.85;1.42;;;;;;;19.31;70.83;98680.50;2618750;54;20046;-69
2022/06/25 06:18:15;;;;;;;2.83;1.83;;;;;;;19.40;70.79;98672.81;2620130;54;20041;-69
2022/06/25 06:20:48;;;;;;;4.50;1.50;;;;;;;19.52;70.89;98679.63;2623153;39;20453;-71
2022/06/25 06:23:17;;;;;;;3.38;1.73;;;;;;;19.61;70.76;98679.16;2620677;54;20042;-69
2022/06/25 06:25:47;;;;;;;3.83;1.75;;;;;;;19.63;70.32;98680.53;2620963;54;20038;-68
2022/06/25 06:28:17;;;;;;;2.40;1.55;;;;;;;19.61;69.73;98673.81;2621736;54;20541;-68
2022/06/25 06:30:48;;;;;;;2.28;1.90;;;;;;;19.63;69.74;98677.06;2622599;54;20564;-69
2022/06/25 06:33:18;;;;;;;2.28;2.00;;;;;;;19.66;69.64;98679.25;2623294;54;20097;-66
2022/06/25 06:35:50;;;;;;;1.55;1.45;;;;;;;19.76;69.64;98680.16;2620048;54;20030;-68
2022/06/25 06:38:30;;;;;;;4.00;1.70;;;;;;;19.96;68.97;98681.34;2619178;54;20046;-68
2022/06/25 06:40:59;;;;;;;4.10;1.67;;;;;;;20.11;68.87;98684.16;2622674;54;20039;-69
2022/06/25 06:43:29;;;;;;;2.85;1.90;;;;;;;20.34;68.43;98687.56;2622531;54;20030;-70
2022/06/25 06:45:59;;;;;;;3.90;3.13;;;;;;;20.50;67.86;98686.63;2623231;54;20038;-68
2022/06/25 06:48:29;;;;;;;1.92;1.83;;;;;;;20.45;66.68;98690.03;2622320;54;20042;-68
2022/06/25 06:51:01;;;;;;;3.65;1.70;;;;;;;20.40;66.04;98681.94;2621317;54;20046;-67
2022/06/25 06:53:31;;;;;;;1.77;1.52;;;;;;;20.31;66.11;98686.19;2621818;54;20038;-68
2022/06/25 06:56:04;;;;;;;3.88;1.95;;;;;;;20.37;66.27;98685.16;2620534;46;20046;-68
2022/06/25 06:58:34;;;;;;;;;;;;;;;20.38;65.81;98681.41;2620629;47;20151;-68
2022/06/25 07:01:04;;;;;;;1.95;1.83;;;;;;;20.50;65.53;98687.41;2620275;47;19942;-68
2022/06/25 07:03:34;;;;;;;6.40;1.88;;;;;;;20.63;64.82;98686.13;2620346;39;20345;-68
2022/06/25 07:06:06;;;;;;;3.95;2.08;;;;;;;20.85;65.02;98682.47;2621312;54;20038;-67
2022/06/25 07:08:37;;;;;;;2.50;1.73;;;;;;;20.95;64.24;98679.84;2621376;54;20029;-68
2022/06/25 07:11:28;;;;;;;3.15;1.95;;;;;;;20.81;64.26;98684.88;2621532;54;20033;-69
2022/06/25 07:13:58;;;;;;;2.58;1.65;;;;;;;20.65;63.78;98689.34;2620979;54;20046;-70
2022/06/25 07:16:29;;;;;;;2.65;1.63;;;;;;;20.66;64.11;98684.81;2620641;47;20142;-68
2022/06/25 07:19:00;;;;;;;2.17;1.70;;;;;;;20.61;64.17;98685.56;2620944;54;20030;-69
2022/06/25 07:21:33;;;;;;;5.13;3.10;;;;;;;20.65;63.90;98686.69;2620339;54;20032;-68
2022/06/25 07:24:03;;;;;;;3.63;1.92;;;;;;;20.64;63.71;98689.63;2620066;54;20026;-68
2022/06/25 07:26:33;;;;;;;4.20;2.35;;;;;;;20.72;63.96;98691.81;2619622;54;20030;-68
2022/06/25 07:29:08;;;;;;;4.10;2.33;;;;;;;20.82;63.55;98689.19;2619739;54;20039;-68
2022/06/25 07:31:38;;;;;;;5.13;2.20;;;;;;;20.94;62.89;98692.47;2622283;54;20589;-68
2022/06/25 07:34:17;;;;;;;6.03;2.20;;;;;;;21.14;62.74;98688.22;2623767;47;20014;-67
2022/06/25 07:36:52;;;;;;;3.35;1.95;;;;;;;21.42;62.24;98686.97;2624115;54;20023;-68
2022/06/25 07:39:22;;;;;;;2.55;2.08;;;;;;;21.48;62.27;98684.06;2625099;54;20034;-68
2022/06/25 07:41:51;;;;;;;3.65;2.15;;;;;;;21.52;61.54;98685.13;2624445;54;20653;-69
2022/06/25 07:44:22;;;;;;;2.08;1.50;;;;;;;21.59;61.33;98676.78;2624316;54;20065;-68
2022/06/25 07:46:52;;;;;;;4.60;2.10;;;;;;;21.72;61.26;98676.28;2624251;54;20549;-67
2022/06/25 07:49:22;;;;;;;4.65;3.03;;;;;;;21.92;60.64;98671.97;2620779;54;20580;-68
2022/06/25 07:51:59;;;;;;;2.80;1.95;;;;;;;21.94;60.13;98670.63;2619445;54;20134;-68
2022/06/25 07:54:31;;;;;;;5.55;1.67;;;;;;;21.98;59.41;98665.50;2619542;54;20034;-68
2022/06/25 07:57:01;;;;;;;1.90;1.63;;;;;;;21.99;59.70;98661.72;2619384;54;20038;-68
2022/06/25 07:59:31;;;;;;;2.28;2.05;;;;;;;22.00;59.15;98660.66;2619254;54;20067;-69
2022/06/25 08:02:01;;;;;;;3.13;2.58;;;;;;;21.86;59.75;98660.41;2618091;54;20030;-67
2022/06/25 08:04:32;;;;;;;2.22;1.88;;;;;;;21.96;59.24;98656.88;2618891;47;20550;-68
2022/06/25 08:07:06;;;;;;;2.42;1.80;;;;;;;22.05;58.54;98649.09;2621554;54;20045;-67
2022/06/25 08:09:36;;;;;;;2.72;2.00;;;;;;;22.12;58.02;98652.28;2620963;47;20029;-65
2022/06/25 08:12:07;;;;;;;4.95;1.90;;;;;;;22.28;57.29;98647.72;2619726;47;20031;-66
2022/06/25 08:14:44;;;;;;;2.72;1.70;;;;;;;22.33;57.08;98645.00;2620956;54;20161;-65
2022/06/25 08:17:14;;;;;;;2.63;2.03;;;;;;;22.49;57.17;98650.13;2621220;39;20509;-67
2022/06/25 08:19:44;;;;;;;2.50;1.40;;;;;;;22.63;56.79;98641.44;2619799;54;20038;-66
2022/06/25 08:22:16;;;;;;;5.22;1.63;;;;;;;22.79;55.56;98643.00;2619629;39;20566;-67
2022/06/25 08:24:46;;;;;;;8.67;3.23;;;;;;;22.95;55.53;98649.16;2619643;54;20027;-68
2022/06/25 08:27:16;;;;;;;2.65;1.55;;;;;;;23.06;55.42;98650.69;2620730;39;20799;-65
2022/06/25 08:29:46;;;;;;;3.03;1.60;;;;;;;23.06;55.00;98645.31;2619038;47;20537;-68
2022/06/25 08:32:19;;;;;;;2.20;1.30;;;;;;;23.14;54.56;98642.03;2619631;54;20045;-66
2022/06/25 08:34:49;;;;;;;3.30;1.45;;;;;;;23.24;54.42;98647.38;2619527;54;20022;-66
2022/06/25 08:37:24;;;;;;;6.28;1.63;;;;;;;23.06;53.87;98642.59;2619495;54;20042;-67
2022/06/25 08:39:54;;;;;;;4.77;2.30;;;;;;;22.92;54.56;98649.69;2619451;46;20054;-64
2022/06/25 08:42:24;;;;;;;2.25;1.65;;;;;;;22.86;55.15;98640.81;2618911;54;20042;-66
2022/06/25 08:44:59;;;;;;;5.68;2.22;;;;;;;22.84;54.52;98636.78;2618952;54;20041;-67
2022/06/25 08:47:29;;;;;;;4.15;1.50;;;;;;;22.73;54.85;98630.59;2618389;47;20053;-67
2022/06/25 08:50:00;;;;;;;2.75;1.40;;;;;;;22.58;54.82;98630.69;2618708;54;20026;-66
2022/06/25 08:52:36;;;;;;;2.13;1.63;;;;;;;22.55;55.58;98629.34;2619066;47;20542;-66
2022/06/25 08:55:08;;;;;;;2.53;1.75;;;;;;;22.64;55.04;98632.28;2618665;54;20039;-68
2022/06/25 08:57:38;;;;;;;1.95;1.77;;;;;;;22.76;54.34;98624.69;2618526;47;20037;-67
2022/06/25 09:00:11;;;;;;;3.08;1.65;;;;;;;22.80;54.96;98628.44;2619015;54;20786;-65
2022/06/25 09:02:52;;;;;;;1.40;1.30;;;;;;;22.91;53.90;98621.94;2619073;39;20513;-67
2022/06/25 09:05:28;;;;;;;1.92;1.67;;;;;;;23.17;53.23;98624.50;2619362;39;20396;-66
2022/06/25 09:08:02;;;;;;;3.85;1.60;;;;;;;23.29;52.56;98622.25;2618721;54;20549;-66
2022/06/25 09:10:33;;;;;;;2.03;1.45;;;;;;;23.38;52.82;98630.56;2618830;54;20039;-67
2022/06/25 09:13:04;;;;;;;1.73;1.55;;;;;;;23.52;52.37;98618.06;2618481;54;20042;-66
2022/06/25 09:15:37;;;;;;;1.60;1.50;;;;;;;23.81;51.94;98622.72;2619378;54;20026;-67
2022/06/25 09:18:12;;;;;;;1.30;1.20;;;;;;;24.10;50.92;98617.31;2619118;54;20042;-66
2022/06/25 09:20:58;;;;;;;3.08;1.30;;;;;;;24.21;49.63;98610.72;2618487;54;20046;-67
2022/06/25 09:23:32;;;;;;;2.00;1.20;;;;;;;24.23;49.65;98606.63;2619004;54;20051;-67
2022/06/25 09:26:08;;;;;;;3.35;1.50;;;;;;;24.00;49.75;98604.69;2618721;47;20526;-66
2022/06/25 09:28:40;;;;;;;2.28;2.00;;;;;;;23.92;49.91;98606.16;2618374;46;20026;-66
2022/06/25 09:31:10;;;;;;;2.58;1.23;;;;;;;23.91;49.04;98607.22;2619338;39;20462;-66
2022/06/25 09:33:42;;;;;;;1.88;1.40;;;;;;;23.92;49.46;98602.63;2619192;54;20158;-66
2022/06/25 09:36:12;;;;;;;1.75;1.40;;;;;;;23.94;49.62;98600.44;2618631;54;20038;-66
2022/06/25 09:38:52;;;;;;;2.75;1.50;;;;;;;24.09;49.90;98596.81;2618276;54;20046;-64
2022/06/25 09:41:25;;;;;;;1.30;1.20;;;;;;;24.21;48.60;98597.22;2619042;54;20038;-65
2022/06/25 09:43:55;;;;;;;3.42;2.05;;;;;;;23.98;48.29;98598.78;2618537;54;20126;-67
2022/06/25 09:46:25;;;;;;;2.40;1.42;;;;;;;23.89;49.11;98590.50;2618761;54;20022;-65
2022/06/25 09:48:55;;;;;;;2.35;1.65;;;;;;;24.20;48.48;98595.59;2618680;54;20114;-66
2022/06/25 09:51:26;;;;;;;2.90;1.42;;;;;;;24.42;47.76;98600.53;2618913;54;20038;-67
2022/06/25 09:54:00;;;;;;;1.52;1.40;;;;;;;24.60;47.08;98604.34;2620947;54;20038;-66
2022/06/25 09:56:31;;;;;;;2.65;1.40;;;;;;;24.81;46.95;98597.59;2621174;54;20030;-66
2022/06/25 09:59:02;;;;;;;3.05;1.45;;;;;;;24.71;46.21;98592.34;2620205;54;20034;-67
2022/06/25 10:01:33;;;;;;;2.50;1.30;;;;;;;24.59;47.18;98592.75;2620423;47;20026;-67
2022/06/25 10:04:04;;;;;;;1.13;1.13;;;;;;;24.69;46.76;98584.50;2620858;54;20038;-66
2022/06/25 10:06:36;;;;;;;5.57;1.60;;;;;;;24.62;46.49;98588.66;2621733;54;20030;-66
2022/06/25 10:09:10;;;;;;;1.67;1.40;;;;;;;24.73;46.87;98583.91;2622579;54;20045;-65
2022/06/25 10:11:40;;;;;;;1.55;1.20;;;;;;;24.96;46.39;98588.47;2621874;47;20026;-65
2022/06/25 10:14:10;;;;;;;1.40;1.23;;;;;;;25.16;45.53;98579.31;2622089;47;20027;-66
2022/06/25 10:16:41;;;;;;;3.55;1.70;;;;;;;25.13;45.66;98582.59;2623265;54;20030;-65
2022/06/25 10:19:13;;;;;;;2.63;1.20;;;;;;;25.43;44.37;98576.72;2623524;54;20042;-67
2022/06/25 10:21:43;;;;;;;2.72;2.30;;;;;;;25.35;44.68;98577.38;2623647;54;20031;-67
2022/06/25 10:24:16;;;;;;;4.07;1.30;;;;;;;25.45;44.49;98579.13;2623509;54;20030;-66
2022/06/25 10:26:46;;;;;;;5.15;2.00;;;;;;;25.57;44.48;98582.16;2624453;54;20034;-67
2022/06/25 10:29:29;;;;;;;1.40;1.30;;;;;;;25.58;43.41;98572.94;2624516;54;20038;-70
2022/06/25 10:32:14;;;;;;;1.20;1.10;;;;;;;25.38;43.39;98574.06;2624340;54;20057;-68
2022/06/25 10:35:01;;;;;;;2.50;1.35;;;;;;;25.18;44.46;98567.06;2624609;54;20022;-68
2022/06/25 10:38:01;;;;;;;1.60;1.42;;;;;;;25.24;44.08;98567.00;2624532;54;20031;-66
2022/06/25 10:40:33;;;;;;;3.55;1.50;;;;;;;25.14;44.39;98562.53;2624013;54;20107;-67
2022/06/25 10:43:05;;;;;;;3.50;1.50;;;;;;;25.07;44.25;98564.81;2623969;54;20049;-66
2022/06/25 10:45:53;;;;;;;1.65;1.38;;;;;;;25.32;44.30;98552.81;2623358;54;20030;-66
2022/06/25 10:48:25;;;;;;;4.10;1.10;;;;;;;25.45;43.74;98552.06;2623224;54;20057;-66
2022/06/25 10:50:56;;;;;;;2.08;1.33;;;;;;;25.62;43.00;98541.47;2623682;54;20042;-65
2022/06/25 10:53:28;;;;;;;6.35;4.15;;;;;;;25.80;43.48;98542.56;2623928;54;20034;-66
2022/06/25 10:56:27;;;;;;;1.77;1.10;;;;;;;25.89;42.77;98548.06;2624041;54;20037;-65
2022/06/25 10:58:58;;;;;;;1.60;1.50;;;;;;;25.91;42.68;98545.84;2623882;39;20454;-65
2022/06/25 11:01:35;;;;;;;3.35;1.30;;;;;;;26.07;41.92;98540.97;2623201;54;20033;-66
2022/06/25 11:04:10;;;;;;;1.30;1.20;;;;;;;26.22;41.72;98535.25;2622660;54;20062;-67
2022/06/25 11:06:41;;;;;;;1.63;1.00;;;;;;;26.32;40.61;98526.91;2623477;54;20030;-68
2022/06/25 11:09:17;;;;;;;1.55;1.00;;;;;;;26.37;40.67;98529.53;2623550;54;20041;-67
2022/06/25 11:11:51;;;;;;;2.30;1.10;;;;;;;26.41;40.42;98533.22;2623069;54;20038;-67
2022/06/25 11:14:24;;;;;;;1.30;1.02;;;;;;;26.48;40.58;98529.31;2622746;47;20031;-67
2022/06/25 11:16:56;;;;;;;2.85;2.08;;;;;;;26.58;40.62;98527.22;2623899;54;20048;-67
2022/06/25 11:19:26;;;;;;;1.27;1.17;;;;;;;26.79;39.47;98529.47;2623747;54;20027;-66
2022/06/25 11:21:56;;;;;;;5.43;1.38;;;;;;;26.60;40.64;98526.91;2623386;54;20037;-66
2022/06/25 11:24:28;;;;;;;2.38;1.30;;;;;;;26.58;40.43;98526.41;2622614;54;20038;-65
2022/06/25 11:29:47;;;;;;;2.03;1.20;;;;;;;26.35;40.08;98520.09;2622041;54;20026;-66
2022/06/25 11:32:22;;;;;;;1.67;1.13;;;;;;;26.18;39.99;98518.78;2622401;54;20034;-66
2022/06/25 11:34:54;;;;;;;3.88;1.20;;;;;;;26.15;40.54;98524.00;2623138;54;20102;-67
2022/06/25 11:37:25;;;;;;;2.13;1.52;;;;;;;26.08;40.91;98523.59;2622687;54;20049;-66
2022/06/25 11:39:56;;;;;;;2.03;1.60;;;;;;;26.38;40.72;98523.00;2622694;39;20846;-66
2022/06/25 11:42:29;;;;;;;3.50;1.30;;;;;;;26.55;40.36;98519.69;2622911;54;20038;-67
2022/06/25 11:44:59;;;;;;;1.73;1.10;;;;;;;26.76;39.85;98525.44;2622803;54;20027;-66
2022/06/25 11:47:32;;;;;;;1.15;1.05;;;;;;;26.56;39.90;98515.06;2622090;54;20098;-67
2022/06/25 11:50:09;;;;;;;18.85;15.27;;;;;;;26.40;39.96;98520.78;2621121;47;20073;-65
2022/06/25 11:52:43;;;;;;;2.72;1.38;;;;;;;26.09;40.18;98520.59;2620835;54;20038;-66
2022/06/25 11:55:13;;;;;;;1.60;1.50;;;;;;;26.00;41.07;98518.88;2620227;54;20041;-66
2022/06/25 11:57:46;;;;;;;4.50;1.25;;;;;;;26.21;41.11;98522.81;2619206;54;20174;-66
2022/06/25 12:00:16;;;;;;;1.90;1.20;;;;;;;26.11;40.97;98514.88;2619088;54;20526;-67
2022/06/25 12:02:46;;;;;;;1.45;1.35;;;;;;;26.09;41.36;98511.69;2619611;54;20042;-67
2022/06/25 12:05:16;;;;;;;1.88;1.40;;;;;;;26.06;41.23;98510.38;2621225;39;20414;-66
2022/06/25 12:07:48;;;;;;;1.40;1.30;;;;;;;26.01;41.18;98517.81;2620907;54;20033;-66
2022/06/25 12:10:18;;;;;;;2.20;1.42;;;;;;;26.00;42.08;98513.47;2621570;54;20077;-66
2022/06/25 12:12:51;;;;;;;1.85;1.40;;;;;;;26.16;41.46;98509.34;2621039;47;20033;-66
2022/06/25 12:15:21;;;;;;;1.55;1.45;;;;;;;26.06;41.29;98510.38;2620729;54;20034;-66
2022/06/25 12:17:50;;;;;;;2.65;1.50;;;;;;;26.22;41.77;98512.78;2621934;54;20042;-65
2022/06/25 12:20:20;;;;;;;2.05;1.20;;;;;;;26.22;41.64;98510.88;2621606;54;20030;-66
2022/06/25 12:22:53;;;;;;;3.03;1.25;;;;;;;26.18;41.29;98501.75;2619314;51;20030;-66
2022/06/25 12:25:28;;;;;;;2.17;1.30;;;;;;;26.15;41.49;98500.44;2619742;54;20031;-66
2022/06/25 12:28:00;;;;;;;1.90;1.50;;;;;;;26.43;40.78;98500.41;2620802;54;20038;-67
2022/06/25 12:30:32;;;;;;;1.38;1.27;;;;;;;26.68;40.20;98493.66;2620095;39;20425;-66
2022/06/25 12:33:09;;;;;;;1.65;1.10;;;;;;;26.91;39.13;98487.16;2619430;54;20030;-65
2022/06/25 12:35:43;;;;;;;1.25;1.15;;;;;;;27.10;38.88;98486.97;2621389;54;20025;-64
2022/06/25 12:38:14;;;;;;;2.35;1.20;;;;;;;27.16;38.22;98480.31;2620952;54;20033;-66
2022/06/25 12:40:48;;;;;;;1.47;1.10;;;;;;;27.04;38.19;98482.78;2619652;54;20073;-67
2022/06/25 12:43:21;;;;;;;3.42;1.20;;;;;;;26.90;38.26;98479.28;2618832;54;20849;-66
2022/06/25 12:45:55;;;;;;;2.45;1.02;;;;;;;26.53;38.84;98481.22;2618847;54;20037;-65
2022/06/25 12:48:29;;;;;;;0.90;0.90;;;;;;;26.45;39.18;98473.00;2618596;54;20038;-64
2022/06/25 12:51:10;;;;;;;1.48;1.38;;;;;;;26.47;39.49;98468.91;2618910;54;20033;-67
2022/06/25 12:53:40;;;;;;;5.05;1.52;;;;;;;26.57;39.89;98463.25;2618866;54;20149;-66
2022/06/25 12:56:10;;;;;;;4.07;1.92;;;;;;;26.83;39.40;98468.91;2618710;54;20042;-68
2022/06/25 12:58:44;;;;;;;3.47;1.70;;;;;;;27.07;38.24;98465.09;2617891;47;20041;-65
2022/06/25 13:01:20;;;;;;;2.30;1.67;;;;;;;27.28;38.13;98451.84;2618181;54;20038;-65
2022/06/25 13:03:50;;;;;;;2.35;1.35;;;;;;;27.40;38.59;98452.06;2617448;47;20163;-66
2022/06/25 13:06:20;;;;;;;1.67;1.20;;;;;;;27.71;38.09;98443.09;2618336;54;20022;-67
2022/06/25 13:08:50;;;;;;;1.15;1.00;;;;;;;27.96;36.86;98447.03;2618122;47;20045;-65
2022/06/25 13:11:20;;;;;;;1.00;0.90;;;;;;;28.04;36.25;98444.31;2618355;54;20026;-66